Time;durP1;ratioP1;P1;durP2;ratioP2;P2;SDS_P1;SDS_P2;PMS_P1;PMS_P2;Temp;Humidity;BMP_temperature;BMP_pressure;BME280_temperature;BME280_humidity;BME280_pressure;Samples;Min_cycle;Max_cycle;Signal;HPM_P1;HPM_P2
2024/01/07 00:00:17;;;;;;;34.75;27.08;;;;;;;0.28;100.00;101521.31;5058537;28;20036;-79
2024/01/07 00:02:42;;;;;;;32.15;26.52;;;;;;;0.27;100.00;101519.56;5062991;28;20355;-79
2024/01/07 00:05:08;;;;;;;31.77;26.60;;;;;;;0.27;100.00;101516.97;5068705;28;20036;-81
2024/01/07 00:07:33;;;;;;;55.03;41.50;;;;;;;0.30;100.00;101526.59;5058038;28;20032;-79
2024/01/07 00:09:58;;;;;;;33.00;27.67;;;;;;;0.30;100.00;101531.81;5059243;28;20020;-79
2024/01/07 00:12:25;;;;;;;34.78;28.20;;;;;;;0.24;100.00;101520.44;5054556;28;20374;-79
2024/01/07 00:14:50;;;;;;;33.83;27.88;;;;;;;0.22;100.00;101522.19;5060100;28;20033;-79
2024/01/07 00:17:15;;;;;;;34.65;26.88;;;;;;;0.28;100.00;101525.69;5056016;28;20619;-79
2024/01/07 00:19:41;;;;;;;33.20;27.35;;;;;;;0.29;100.00;101535.28;5091606;27;20033;-79
2024/01/07 00:22:06;;;;;;;33.78;27.58;;;;;;;0.22;100.00;101526.56;5056445;28;20091;-78
2024/01/07 00:24:32;;;;;;;33.30;26.67;;;;;;;0.29;100.00;101528.28;5054269;28;20089;-79
2024/01/07 00:26:57;;;;;;;31.92;26.90;;;;;;;0.30;100.00;101531.81;5057109;28;20675;-79
2024/01/07 00:29:22;;;;;;;34.25;27.65;;;;;;;0.30;100.00;101527.44;5054003;28;20154;-79
2024/01/07 00:31:48;;;;;;;31.50;26.17;;;;;;;0.34;100.00;101541.44;5058106;28;20016;-79
2024/01/07 00:34:13;;;;;;;33.85;27.23;;;;;;;0.36;100.00;101540.53;5094340;27;20078;-79
2024/01/07 00:36:38;;;;;;;30.77;26.00;;;;;;;0.40;100.00;101546.66;5064198;28;20111;-79
2024/01/07 00:39:04;;;;;;;29.90;25.90;;;;;;;0.28;100.00;101528.31;5058532;28;20462;-80
2024/01/07 00:41:32;;;;;;;31.92;26.63;;;;;;;0.36;100.00;101548.41;5055567;28;20033;-80
2024/01/07 00:43:57;;;;;;;30.95;26.00;;;;;;;0.35;100.00;101548.41;5087453;27;20029;-81
2024/01/07 00:46:23;;;;;;;31.98;26.90;;;;;;;0.35;100.00;101546.66;5056967;28;20048;-80
2024/01/07 00:48:48;;;;;;;29.17;25.38;;;;;;;0.30;100.00;101547.53;5061640;28;20028;-79
2024/01/07 00:51:13;;;;;;;33.22;27.00;;;;;;;0.34;100.00;101549.28;5061451;28;20048;-80
2024/01/07 00:53:39;;;;;;;32.30;26.35;;;;;;;0.31;100.00;101550.13;5057935;28;20060;-79
2024/01/07 00:56:05;;;;;;;30.88;26.55;;;;;;;0.30;100.00;101558.00;5054487;28;20068;-79
2024/01/07 00:58:30;;;;;;;30.70;25.77;;;;;;;0.33;100.00;101565.84;5053746;28;20029;-79
2024/01/07 01:00:55;;;;;;;32.65;25.85;;;;;;;0.31;100.00;101564.97;5059955;28;20051;-79
2024/01/07 01:03:21;;;;;;;31.98;25.80;;;;;;;0.27;100.00;101569.31;5064850;28;20032;-79
2024/01/07 01:05:47;;;;;;;32.83;26.63;;;;;;;0.27;100.00;101576.31;5060369;28;20036;-79
2024/01/07 01:08:12;;;;;;;30.25;25.02;;;;;;;0.17;100.00;101555.34;5055991;28;21267;-79
2024/01/07 01:10:38;;;;;;;28.20;24.92;;;;;;;0.18;100.00;101566.69;5058516;28;20039;-79
2024/01/07 01:13:03;;;;;;;28.70;24.90;;;;;;;0.27;100.00;101576.31;5062558;28;20055;-79
2024/01/07 01:15:29;;;;;;;27.15;23.90;;;;;;;0.23;100.00;101567.56;5059793;28;20056;-79
2024/01/07 01:17:54;;;;;;;27.92;23.80;;;;;;;0.22;100.00;101581.53;5057942;28;20032;-79
2024/01/07 01:20:19;;;;;;;27.58;23.63;;;;;;;0.18;100.00;101580.66;5061664;28;20087;-79
2024/01/07 01:22:44;;;;;;;25.88;23.15;;;;;;;0.19;100.00;101594.59;5061189;28;20021;-79
2024/01/07 01:25:10;;;;;;;27.00;23.45;;;;;;;0.08;100.00;101575.34;5051409;28;20048;-79
2024/01/07 01:27:35;;;;;;;26.98;23.60;;;;;;;0.17;100.00;101585.88;5056756;28;20036;-80
2024/01/07 01:30:01;;;;;;;28.60;23.70;;;;;;;0.06;100.00;101579.72;5054971;28;20104;-80
2024/01/07 01:32:26;;;;;;;27.13;24.10;;;;;;;0.14;100.00;101596.34;5052258;28;20311;-79
2024/01/07 01:34:51;;;;;;;30.50;25.42;;;;;;;0.14;100.00;101596.34;5058319;28;20285;-80
2024/01/07 01:37:17;;;;;;;30.17;25.38;;;;;;;0.15;100.00;101600.69;5062375;28;20063;-80
2024/01/07 01:39:42;;;;;;;28.85;24.77;;;;;;;0.11;100.00;101606.78;5055858;28;20033;-80
2024/01/07 01:42:08;;;;;;;31.02;25.38;;;;;;;0.12;100.00;101608.53;5058340;28;20039;-80
2024/01/07 01:44:34;;;;;;;32.85;26.63;;;;;;;0.07;100.00;101598.03;5059720;28;20039;-80
2024/01/07 01:47:00;;;;;;;32.42;27.50;;;;;;;0.03;100.00;101592.78;5060331;28;20089;-80
2024/01/07 01:49:26;;;;;;;33.03;26.55;;;;;;;0.07;100.00;101611.13;5058128;28;20028;-79
2024/01/07 01:51:52;;;;;;;36.55;28.23;;;;;;;0.07;100.00;101607.66;5060199;28;20091;-80
2024/01/07 01:54:19;;;;;;;33.45;27.08;;;;;;;0.04;100.00;101598.03;5058003;28;20530;-80
2024/01/07 01:56:45;;;;;;;35.05;27.60;;;;;;;0.02;100.00;101601.53;5060087;28;20035;-80
2024/01/07 01:59:12;;;;;;;34.28;27.20;;;;;;;0.06;100.00;101617.25;5055812;28;20041;-80
2024/01/07 02:01:39;;;;;;;37.42;29.65;;;;;;;0.05;100.00;101619.88;5056933;28;20060;-80
2024/01/07 02:04:05;;;;;;;38.35;29.98;;;;;;;0.06;100.00;101624.22;5061640;28;20076;-80
2024/01/07 02:06:31;;;;;;;35.70;29.10;;;;;;;0.05;100.00;101622.47;5060466;28;20055;-80
2024/01/07 02:08:56;;;;;;;37.20;30.70;;;;;;;0.09;100.00;101625.13;5062533;28;20020;-80
2024/01/07 02:11:22;;;;;;;36.50;28.42;;;;;;;0.06;100.00;101626.84;5056792;28;20032;-80
2024/01/07 02:13:48;;;;;;;39.55;29.42;;;;;;;0.06;100.00;101627.72;5058432;28;20033;-80
2024/01/07 02:16:13;;;;;;;40.95;31.50;;;;;;;0.12;100.00;101624.25;5055083;28;20040;-79
2024/01/07 02:18:44;;;;;;;38.65;29.83;;;;;;;0.12;100.00;101629.47;5055895;28;20024;-79
2024/01/07 02:21:10;;;;;;;40.08;31.13;;;;;;;0.11;100.00;101628.59;5064363;28;20028;-79
2024/01/07 02:23:36;;;;;;;39.85;30.60;;;;;;;0.12;100.00;101629.47;5061606;28;20774;-80
2024/01/07 02:26:01;;;;;;;42.85;31.45;;;;;;;0.08;100.00;101627.72;5055118;28;20032;-79
2024/01/07 02:28:27;;;;;;;40.28;31.52;;;;;;;0.16;100.00;101636.47;5058796;28;20024;-79
2024/01/07 02:30:52;;;;;;;40.13;30.80;;;;;;;0.12;100.00;101640.81;5052101;28;20436;-80
2024/01/07 02:33:17;;;;;;;40.85;29.88;;;;;;;0.08;100.00;101633.81;5058227;28;20025;-80
2024/01/07 02:35:43;;;;;;;40.22;31.20;;;;;;;0.10;100.00;101642.56;5056294;28;20039;-79
2024/01/07 02:38:08;;;;;;;39.88;29.20;;;;;;;0.12;100.00;101640.81;5061916;28;20063;-79
2024/01/07 02:40:33;;;;;;;40.95;31.23;;;;;;;0.04;100.00;101633.78;5061095;28;20027;-79
2024/01/07 02:42:59;;;;;;;41.00;30.92;;;;;;;0.13;100.00;101639.09;5059711;28;20059;-79
2024/01/07 02:45:24;;;;;;;44.90;32.45;;;;;;;0.08;100.00;101648.66;5061637;28;20362;-79
2024/01/07 02:47:50;;;;;;;45.15;32.70;;;;;;;0.00;100.00;101643.41;5057428;28;20035;-79
2024/01/07 02:50:16;;;;;;;42.72;31.55;;;;;;;0.07;100.00;101649.53;5061024;28;20032;-79
2024/01/07 02:52:41;;;;;;;45.60;32.03;;;;;;;0.06;100.00;101647.78;5058359;28;20020;-79
2024/01/07 02:55:07;;;;;;;49.83;34.55;;;;;;;-0.07;100.00;101629.41;5060386;28;20082;-79
2024/01/07 02:57:32;;;;;;;53.05;35.20;;;;;;;-0.03;100.00;101652.09;5056965;28;20575;-79
2024/01/07 02:59:58;;;;;;;49.50;34.30;;;;;;;-0.01;100.00;101658.19;5053235;28;20038;-79
2024/01/07 03:02:23;;;;;;;51.65;35.15;;;;;;;-0.08;100.00;101648.59;5064900;28;20380;-79
2024/01/07 03:04:49;;;;;;;53.58;36.30;;;;;;;-0.02;100.00;101659.06;5064731;28;20036;-79
2024/01/07 03:07:14;;;;;;;52.72;35.95;;;;;;;-0.04;100.00;101660.81;5062059;28;20017;-79
2024/01/07 03:09:39;;;;;;;54.97;35.50;;;;;;;-0.01;100.00;101655.59;5061539;28;20028;-79
2024/01/07 03:12:05;;;;;;;55.58;36.38;;;;;;;0.03;100.00;101656.47;5060747;28;20035;-79
2024/01/07 03:14:30;;;;;;;56.72;37.05;;;;;;;0.08;100.00;101669.59;5094542;27;20365;-79
2024/01/07 03:16:55;;;;;;;55.25;35.67;;;;;;;0.09;100.00;101672.22;5070300;28;20218;-79
2024/01/07 03:19:21;;;;;;;58.53;38.58;;;;;;;0.10;100.00;101668.75;5061318;28;20051;-79
2024/01/07 03:21:48;;;;;;;62.00;39.83;;;;;;;0.10;100.00;101680.97;5062332;28;20253;-79
2024/01/07 03:24:13;;;;;;;61.83;39.58;;;;;;;0.10;100.00;101679.22;5101040;27;20541;-79
2024/01/07 03:26:39;;;;;;;60.88;38.83;;;;;;;0.09;100.00;101676.59;5060607;28;20170;-79
2024/01/07 03:29:04;;;;;;;57.78;37.63;;;;;;;0.11;100.00;101685.31;5053709;28;20036;-79
2024/01/07 03:31:29;;;;;;;59.22;39.75;;;;;;;0.09;100.00;101673.97;5063391;28;20039;-80
2024/01/07 03:33:55;;;;;;;58.58;39.33;;;;;;;0.14;100.00;101677.50;5062949;28;20025;-79
2024/01/07 03:36:20;;;;;;;56.45;36.00;;;;;;;0.11;100.00;101682.69;5070239;28;20113;-80
2024/01/07 03:38:46;;;;;;;55.75;36.38;;;;;;;0.12;100.00;101680.09;5062045;28;20037;-80
2024/01/07 03:41:19;;;;;;;52.65;35.75;;;;;;;0.09;100.00;101672.22;5060008;28;20028;-79
2024/01/07 03:43:45;;;;;;;50.20;34.40;;;;;;;0.09;100.00;101677.47;5060296;28;20035;-79
2024/01/07 03:46:11;;;;;;;48.15;33.50;;;;;;;0.08;100.00;101673.06;5060367;28;20039;-79
2024/01/07 03:48:36;;;;;;;45.30;32.08;;;;;;;0.12;100.00;101684.44;5058890;28;20547;-79
2024/01/07 03:51:01;;;;;;;40.72;30.30;;;;;;;0.12;100.00;101682.69;5065234;28;20027;-79
2024/01/07 03:53:27;;;;;;;44.00;31.90;;;;;;;0.13;100.00;101689.72;5061912;28;20123;-79
2024/01/07 03:55:52;;;;;;;41.70;30.30;;;;;;;0.11;100.00;101693.16;5058543;28;20033;-80
2024/01/07 03:58:17;;;;;;;39.97;29.17;;;;;;;0.02;100.00;101685.28;5063482;28;20594;-79
2024/01/07 04:00:43;;;;;;;39.75;30.02;;;;;;;0.05;100.00;101695.78;5057310;28;20044;-80
2024/01/07 04:03:08;;;;;;;37.40;27.95;;;;;;;0.00;100.00;101698.38;5064143;28;20028;-79
2024/01/07 04:05:33;;;;;;;33.05;26.02;;;;;;;0.00;100.00;101703.59;5059415;28;20124;-79
2024/01/07 04:08:02;;;;;;;32.45;26.02;;;;;;;-0.05;100.00;101707.91;5065865;28;20127;-79
2024/01/07 04:10:27;;;;;;;35.38;26.95;;;;;;;-0.07;100.00;101701.81;5090476;27;20050;-79
2024/01/07 04:12:52;;;;;;;34.22;27.05;;;;;;;-0.09;100.00;101701.75;5061456;28;20428;-79
2024/01/07 04:15:18;;;;;;;33.47;25.20;;;;;;;-0.03;100.00;101714.03;5062921;28;20032;-79
2024/01/07 04:17:43;;;;;;;31.55;25.90;;;;;;;-0.11;100.00;101705.25;5051689;28;20567;-79
2024/01/07 04:20:13;;;;;;;36.33;26.73;;;;;;;-0.16;100.00;101705.22;5063472;28;20036;-79
2024/01/07 04:22:38;;;;;;;34.10;26.20;;;;;;;-0.09;100.00;101716.59;5059379;28;20543;-79
2024/01/07 04:25:08;;;;;;;35.63;27.10;;;;;;;-0.14;100.00;101705.22;5061661;28;20119;-79
2024/01/07 04:27:36;;;;;;;32.95;25.92;;;;;;;-0.16;100.00;101707.84;5058996;28;20024;-79
2024/01/07 04:30:02;;;;;;;33.25;24.88;;;;;;;-0.11;100.00;101721.84;5061826;28;20024;-79
2024/01/07 04:32:27;;;;;;;36.40;24.88;;;;;;;-0.09;100.00;101725.31;5058989;28;20032;-79
2024/01/07 04:34:52;;;;;;;30.92;23.95;;;;;;;-0.10;100.00;101722.69;5061016;28;20115;-80
2024/01/07 04:37:18;;;;;;;30.02;23.90;;;;;;;-0.15;100.00;101716.56;5060345;28;20038;-79
2024/01/07 04:39:43;;;;;;;32.05;24.77;;;;;;;-0.07;100.00;101726.22;5061503;28;20124;-80
2024/01/07 04:42:08;;;;;;;29.45;23.92;;;;;;;-0.04;100.00;101728.88;5061268;28;20037;-79
2024/01/07 04:44:34;;;;;;;31.98;25.00;;;;;;;-0.05;100.00;101737.56;5061725;28;20032;-79
2024/01/07 04:46:59;;;;;;;30.02;23.98;;;;;;;-0.05;100.00;101742.78;5062130;28;20039;-79
2024/01/07 04:49:24;;;;;;;32.05;25.17;;;;;;;-0.08;100.00;101742.78;5060466;28;20028;-79
2024/01/07 04:51:50;;;;;;;35.05;25.88;;;;;;;-0.08;100.00;101744.53;5059693;28;20040;-79
2024/01/07 04:54:15;;;;;;;33.95;25.90;;;;;;;-0.10;100.00;101757.59;5093763;27;20464;-79
2024/01/07 04:56:40;;;;;;;33.15;24.45;;;;;;;-0.07;100.00;101751.53;5058669;28;20098;-79
2024/01/07 04:59:06;;;;;;;30.55;24.58;;;;;;;-0.17;100.00;101737.47;5060825;28;20509;-79
2024/01/07 05:01:35;;;;;;;30.85;23.77;;;;;;;-0.11;100.00;101755.84;5057500;28;20072;-79
2024/01/07 05:04:00;;;;;;;30.00;25.80;;;;;;;-0.07;100.00;101756.75;5063293;28;20028;-79
2024/01/07 05:06:26;;;;;;;30.23;23.40;;;;;;;-0.16;100.00;101744.47;5060208;28;20527;-79
2024/01/07 05:08:51;;;;;;;32.10;25.02;;;;;;;-0.09;100.00;101758.47;5062014;28;20324;-79
2024/01/07 05:11:17;;;;;;;28.83;24.58;;;;;;;-0.19;100.00;101739.22;5055942;28;20028;-80
2024/01/07 05:13:42;;;;;;;29.77;25.08;;;;;;;-0.18;100.00;101746.19;5059139;28;20431;-79
2024/01/07 05:16:08;;;;;;;28.35;23.30;;;;;;;-0.15;100.00;101759.31;5062020;28;20025;-79
2024/01/07 05:18:33;;;;;;;26.45;22.35;;;;;;;-0.18;100.00;101747.94;5063122;28;20052;-79
2024/01/07 05:20:58;;;;;;;23.73;20.13;;;;;;;-0.13;100.00;101768.03;5068984;28;20028;-79
2024/01/07 05:23:24;;;;;;;22.83;20.42;;;;;;;-0.14;100.00;101774.13;5059596;28;20488;-80
2024/01/07 05:25:49;;;;;;;21.63;19.00;;;;;;;-0.19;100.00;101764.50;5059017;28;20031;-79
2024/01/07 05:28:18;;;;;;;21.95;19.65;;;;;;;-0.21;100.00;101771.44;5091281;28;20052;-79
2024/01/07 05:30:44;;;;;;;20.45;18.25;;;;;;;-0.17;100.00;101775.84;5057262;28;20465;-79
2024/01/07 05:33:10;;;;;;;21.25;19.08;;;;;;;-0.19;100.00;101788.06;5057475;28;20035;-79
2024/01/07 05:35:35;;;;;;;21.23;18.98;;;;;;;-0.19;100.00;101791.53;5058613;28;20039;-79
2024/01/07 05:38:01;;;;;;;20.48;18.38;;;;;;;-0.21;100.00;101798.50;5060425;28;20024;-79
2024/01/07 05:40:26;;;;;;;19.55;17.63;;;;;;;-0.20;100.00;101802.00;5057280;28;20082;-79
2024/01/07 05:42:51;;;;;;;19.95;17.88;;;;;;;-0.22;100.00;101811.56;5061566;28;20375;-79
2024/01/07 05:45:17;;;;;;;20.35;18.27;;;;;;;-0.25;100.00;101809.81;5061436;28;20706;-79
2024/01/07 05:47:42;;;;;;;20.13;18.13;;;;;;;-0.22;100.00;101812.44;5057784;28;20028;-80
2024/01/07 05:50:08;;;;;;;19.63;17.63;;;;;;;-0.22;100.00;101807.22;5053496;28;20036;-79
2024/01/07 05:52:34;;;;;;;20.25;18.15;;;;;;;-0.28;100.00;101813.28;5060161;28;20032;-79
2024/01/07 05:54:59;;;;;;;18.45;16.60;;;;;;;-0.27;100.00;101820.25;5056060;28;20043;-79
2024/01/07 05:57:25;;;;;;;19.02;17.13;;;;;;;-0.27;100.00;101820.25;5060271;28;20025;-79
2024/01/07 05:59:50;;;;;;;21.13;18.98;;;;;;;-0.27;100.00;101822.88;5057357;28;20395;-78
2024/01/07 06:02:17;;;;;;;19.83;17.77;;;;;;;-0.29;100.00;101815.88;5054625;28;20064;-79
2024/01/07 06:04:43;;;;;;;20.02;18.05;;;;;;;-0.34;100.00;101821.03;5063269;28;20028;-79
2024/01/07 06:07:08;;;;;;;19.95;17.95;;;;;;;-0.31;100.00;101822.81;5061678;28;20031;-78
2024/01/07 06:09:34;;;;;;;21.63;19.50;;;;;;;-0.28;100.00;101838.56;5052162;28;20028;-79
2024/01/07 06:11:59;;;;;;;20.67;18.48;;;;;;;-0.28;100.00;101839.44;5061734;28;20032;-79
2024/01/07 06:14:25;;;;;;;21.77;19.58;;;;;;;-0.30;100.00;101842.88;5053130;28;20025;-79
2024/01/07 06:16:50;;;;;;;21.25;19.00;;;;;;;-0.38;100.00;101836.69;5061994;28;20039;-79
2024/01/07 06:19:17;;;;;;;21.40;19.20;;;;;;;-0.36;100.00;101850.69;5055986;28;20021;-79
2024/01/07 06:21:43;;;;;;;20.67;18.58;;;;;;;-0.35;100.00;101852.44;5058897;28;20483;-79
2024/01/07 06:24:08;;;;;;;21.73;19.40;;;;;;;-0.37;100.00;101852.44;5066256;28;20634;-79
2024/01/07 06:26:34;;;;;;;21.40;18.98;;;;;;;-0.35;100.00;101862.91;5058425;28;20686;-79
2024/01/07 06:29:00;;;;;;;22.20;20.00;;;;;;;-0.36;100.00;101862.03;5056018;28;20036;-79
2024/01/07 06:31:26;;;;;;;20.63;18.55;;;;;;;-0.37;100.00;101864.63;5060463;28;20098;-79
2024/01/07 06:33:51;;;;;;;21.30;18.92;;;;;;;-0.35;100.00;101875.97;5058927;28;20024;-79
2024/01/07 06:36:17;;;;;;;22.10;19.80;;;;;;;-0.35;100.00;101873.38;5057392;28;20091;-79
2024/01/07 06:38:43;;;;;;;21.45;19.17;;;;;;;-0.38;100.00;101870.72;5057161;28;20099;-79
2024/01/07 06:41:09;;;;;;;20.33;18.27;;;;;;;-0.38;100.00;101883.78;5064884;28;20050;-79
2024/01/07 06:43:35;;;;;;;21.45;19.15;;;;;;;-0.38;100.00;101879.44;5096018;27;20024;-79
2024/01/07 06:46:01;;;;;;;21.20;19.10;;;;;;;-0.44;100.00;101878.50;5067442;28;20035;-79
2024/01/07 06:48:26;;;;;;;21.00;18.83;;;;;;;-0.41;100.00;101895.13;5060755;28;20107;-80
2024/01/07 06:50:51;;;;;;;21.13;18.83;;;;;;;-0.40;100.00;101901.22;5067386;28;20032;-80
2024/01/07 06:53:20;;;;;;;21.38;19.17;;;;;;;-0.45;100.00;101908.13;5067335;28;20086;-79
2024/01/07 06:55:45;;;;;;;20.80;18.73;;;;;;;-0.43;100.00;101911.63;5064194;28;20032;-79
2024/01/07 06:58:10;;;;;;;22.48;19.30;;;;;;;-0.46;100.00;101906.38;5061518;28;20058;-79
2024/01/07 07:00:35;;;;;;;20.88;18.67;;;;;;;-0.44;100.00;101918.59;5052924;28;20275;-79
2024/01/07 07:03:01;;;;;;;21.23;18.95;;;;;;;-0.44;100.00;101918.59;5065490;28;20036;-78
2024/01/07 07:05:26;;;;;;;22.33;19.92;;;;;;;-0.45;100.00;101918.59;5096631;27;20028;-79
2024/01/07 07:07:52;;;;;;;22.55;20.15;;;;;;;-0.61;100.00;101920.16;5061352;28;20024;-78
2024/01/07 07:10:17;;;;;;;22.27;19.98;;;;;;;-0.61;100.00;101917.53;5062836;28;20108;-79
2024/01/07 07:12:43;;;;;;;22.60;20.20;;;;;;;-0.53;100.00;101921.13;5060826;28;20017;-79
2024/01/07 07:15:09;;;;;;;23.17;20.27;;;;;;;-0.62;100.00;101923.63;5064254;28;20500;-79
2024/01/07 07:17:36;;;;;;;21.95;19.73;;;;;;;-0.60;100.00;101935.84;5064080;28;20820;-79
2024/01/07 07:20:01;;;;;;;22.95;20.70;;;;;;;-0.61;100.00;101923.63;5062366;28;20031;-79
2024/01/07 07:22:26;;;;;;;21.88;19.67;;;;;;;-0.64;100.00;101928.81;5064447;28;20072;-80
2024/01/07 07:24:52;;;;;;;21.00;18.83;;;;;;;-0.53;100.00;101936.81;5061410;28;20085;-79
2024/01/07 07:27:17;;;;;;;20.23;18.15;;;;;;;-0.60;100.00;101945.44;5095645;27;20032;-79
2024/01/07 07:29:42;;;;;;;20.50;18.40;;;;;;;-0.61;100.00;101944.56;5054282;28;20484;-79
2024/01/07 07:32:08;;;;;;;21.75;19.40;;;;;;;-0.61;100.00;101955.00;5060451;28;20028;-79
2024/01/07 07:34:33;;;;;;;20.25;18.10;;;;;;;-0.65;100.00;101954.97;5059879;28;20031;-79
2024/01/07 07:36:59;;;;;;;19.83;17.80;;;;;;;-0.59;100.00;101971.59;5064083;28;20024;-79
2024/01/07 07:39:24;;;;;;;21.83;19.52;;;;;;;-0.58;100.00;101964.66;5064501;28;20028;-79
2024/01/07 07:41:49;;;;;;;21.33;19.23;;;;;;;-0.53;100.00;101971.69;5061755;28;20055;-79
2024/01/07 07:44:15;;;;;;;22.02;19.42;;;;;;;-0.56;100.00;101976.88;5061805;28;20039;-78
2024/01/07 07:46:40;;;;;;;21.05;18.90;;;;;;;-0.63;100.00;101974.16;5065341;28;20020;-78
2024/01/07 07:49:06;;;;;;;22.23;19.95;;;;;;;-0.60;100.00;101982.91;5063262;28;20432;-79
2024/01/07 07:51:31;;;;;;;21.85;19.60;;;;;;;-0.66;100.00;101985.47;5063807;28;20029;-80
2024/01/07 07:53:57;;;;;;;20.67;18.63;;;;;;;-0.66;100.00;101987.19;5057259;28;20517;-80
2024/01/07 07:56:22;;;;;;;22.17;19.77;;;;;;;-0.67;100.00;101998.50;5061964;28;20036;-80
2024/01/07 07:58:48;;;;;;;20.98;18.88;;;;;;;-0.70;100.00;102007.19;5060401;28;20043;-80
2024/01/07 08:01:13;;;;;;;21.13;18.92;;;;;;;-0.69;100.00;102003.72;5058035;28;20044;-80
2024/01/07 08:03:39;;;;;;;21.02;18.88;;;;;;;-0.78;100.00;102001.84;5061007;28;20059;-80
2024/01/07 08:06:04;;;;;;;20.70;18.58;;;;;;;-0.67;100.00;102006.34;5061849;28;20038;-79
2024/01/07 08:08:30;;;;;;;21.60;19.35;;;;;;;-0.70;100.00;102008.94;5063780;28;20091;-79
2024/01/07 08:10:55;;;;;;;20.83;18.67;;;;;;;-0.69;100.00;102011.56;5056785;28;20074;-79
2024/01/07 08:13:20;;;;;;;20.13;17.88;;;;;;;-0.65;100.00;102012.47;5059440;28;20017;-79
2024/01/07 08:15:46;;;;;;;20.80;18.63;;;;;;;-0.69;100.00;102011.56;5058034;28;20024;-79
2024/01/07 08:18:11;;;;;;;20.58;18.23;;;;;;;-0.67;100.00;102017.72;5055088;28;20064;-79
2024/01/07 08:20:36;;;;;;;21.55;18.42;;;;;;;-0.68;100.00;102015.91;5060392;28;20098;-79
2024/01/07 08:23:02;;;;;;;21.02;18.90;;;;;;;-0.69;100.00;102014.19;5062427;28;20036;-79
2024/01/07 08:25:27;;;;;;;20.85;18.58;;;;;;;-0.72;100.00;102003.66;5058103;28;20032;-79
2024/01/07 08:27:53;;;;;;;20.60;18.15;;;;;;;-0.68;100.00;102035.97;5060476;28;20054;-79
2024/01/07 08:30:18;;;;;;;22.17;19.02;;;;;;;-0.70;100.00;102025.50;5055085;28;20024;-79
2024/01/07 08:32:43;;;;;;;21.52;19.17;;;;;;;-0.71;100.00;102030.69;5061079;28;20476;-79
2024/01/07 08:35:09;;;;;;;22.27;19.88;;;;;;;-0.67;100.00;102038.63;5059458;28;20024;-78
2024/01/07 08:37:34;;;;;;;21.83;19.45;;;;;;;-0.71;100.00;102041.13;5054512;28;20486;-79
2024/01/07 08:40:00;;;;;;;22.02;19.35;;;;;;;-0.63;100.00;102044.75;5061276;28;20107;-79
2024/01/07 08:42:27;;;;;;;21.92;19.58;;;;;;;-0.71;100.00;102042.06;5061505;28;20750;-79
2024/01/07 08:44:52;;;;;;;21.17;18.75;;;;;;;-0.70;100.00;102048.16;5060745;28;20048;-77
2024/01/07 08:47:18;;;;;;;23.38;18.90;;;;;;;-0.64;100.00;102059.56;5061070;28;20020;-78
2024/01/07 08:49:43;;;;;;;23.48;19.80;;;;;;;-0.67;100.00;102051.69;5056903;28;20645;-79
2024/01/07 08:52:09;;;;;;;22.15;19.75;;;;;;;-0.68;100.00;102049.91;5058401;28;20492;-79
2024/01/07 08:54:34;;;;;;;21.15;18.98;;;;;;;-0.64;100.00;102064.78;5060008;28;20024;-79
2024/01/07 08:57:00;;;;;;;23.25;19.83;;;;;;;-0.64;100.00;102063.91;5058386;28;20028;-78
2024/01/07 08:59:25;;;;;;;21.88;19.60;;;;;;;-0.72;100.00;102063.78;5087642;27;20393;-78
2024/01/07 09:01:50;;;;;;;21.42;19.15;;;;;;;-0.73;100.00;102059.44;5059174;28;20032;-80
2024/01/07 09:04:19;;;;;;;22.35;20.02;;;;;;;-0.64;100.00;102077.88;5061544;28;20074;-79
2024/01/07 09:06:44;;;;;;;20.45;18.35;;;;;;;-0.69;100.00;102081.28;5064747;28;20081;-80
2024/01/07 09:09:10;;;;;;;21.98;19.25;;;;;;;-0.69;100.00;102076.91;5062661;28;20472;-79
2024/01/07 09:11:36;;;;;;;22.17;19.90;;;;;;;-0.66;100.00;102082.22;5059080;28;20430;-79
2024/01/07 09:14:03;;;;;;;20.70;18.55;;;;;;;-0.65;100.00;102088.31;5063357;28;20689;-79
2024/01/07 09:16:28;;;;;;;20.88;18.65;;;;;;;-0.70;100.00;102089.97;5052742;28;20118;-79
2024/01/07 09:18:54;;;;;;;21.35;18.92;;;;;;;-0.73;100.00;102097.78;5058369;28;20128;-80
2024/01/07 09:21:19;;;;;;;20.13;18.00;;;;;;;-0.65;100.00;102102.25;5059128;28;20069;-80
2024/01/07 09:23:44;;;;;;;20.90;18.70;;;;;;;-0.69;100.00;102092.63;5059310;28;20098;-80
2024/01/07 09:26:10;;;;;;;20.60;18.00;;;;;;;-0.62;100.00;102120.63;5060119;28;20032;-79
2024/01/07 09:28:35;;;;;;;19.23;17.30;;;;;;;-0.59;100.00;102110.19;5057397;28;20028;-79
2024/01/07 09:31:00;;;;;;;18.50;16.60;;;;;;;-0.63;100.00;102118.84;5062568;28;20675;-80
2024/01/07 09:33:26;;;;;;;19.00;16.48;;;;;;;-0.64;100.00;102118.81;5056182;28;20552;-80
2024/01/07 09:35:51;;;;;;;18.40;16.50;;;;;;;-0.67;100.00;102124.91;5061563;28;20021;-79
2024/01/07 09:38:16;;;;;;;16.75;15.18;;;;;;;-0.65;100.00;102135.38;5060455;28;20370;-79
2024/01/07 09:40:42;;;;;;;16.65;15.15;;;;;;;-0.67;100.00;102140.59;5058915;28;20028;-79
2024/01/07 09:43:08;;;;;;;16.48;14.88;;;;;;;-0.68;100.00;102141.44;5058400;28;20068;-79
2024/01/07 09:45:36;;;;;;;17.08;15.43;;;;;;;-0.69;100.00;102144.91;5056125;28;20110;-79
2024/01/07 09:48:02;;;;;;;16.55;14.95;;;;;;;-0.73;100.00;102137.88;5053893;28;20024;-79
2024/01/07 09:50:27;;;;;;;16.75;15.15;;;;;;;-0.65;100.00;102148.44;5052946;28;20055;-80
2024/01/07 09:53:00;;;;;;;15.20;13.75;;;;;;;-0.68;100.00;102151.88;5055151;28;20024;-79
2024/01/07 09:55:28;;;;;;;15.82;14.32;;;;;;;-0.67;100.00;102147.53;5054175;28;20599;-79
2024/01/07 09:57:54;;;;;;;15.75;14.30;;;;;;;-0.68;100.00;102157.13;5057483;28;20138;-80
2024/01/07 10:00:20;;;;;;;15.90;14.43;;;;;;;-0.74;100.00;102146.56;5048518;28;20060;-80
2024/01/07 10:02:45;;;;;;;15.05;13.60;;;;;;;-0.68;100.00;102151.88;5057500;28;20025;-80
2024/01/07 10:05:10;;;;;;;16.27;14.77;;;;;;;-0.72;100.00;102157.91;5057687;28;20089;-79
2024/01/07 10:07:36;;;;;;;15.25;13.85;;;;;;;-0.69;100.00;102168.44;5059104;28;20688;-80
2024/01/07 10:10:17;;;;;;;15.57;14.18;;;;;;;-0.64;100.00;102168.50;5057310;28;20032;-80
2024/01/07 10:12:46;;;;;;;15.02;13.65;;;;;;;-0.71;100.00;102164.03;5053615;28;20046;-80
2024/01/07 10:15:13;;;;;;;16.15;14.60;;;;;;;-0.69;100.00;102167.56;5059793;28;20401;-79
2024/01/07 10:17:42;;;;;;;15.80;14.32;;;;;;;-0.63;100.00;102178.97;5058461;28;21380;-80
2024/01/07 10:20:09;;;;;;;16.35;14.85;;;;;;;-0.68;100.00;102178.03;5058451;28;20436;-81
2024/01/07 10:22:36;;;;;;;15.00;13.70;;;;;;;-0.65;100.00;102185.06;5057436;28;20067;-79
2024/01/07 10:25:01;;;;;;;16.35;14.88;;;;;;;-0.68;100.00;102180.66;5060630;28;20404;-80
2024/01/07 10:27:27;;;;;;;16.35;14.82;;;;;;;-0.67;100.00;102187.66;5058551;28;20032;-80
2024/01/07 10:29:55;;;;;;;16.15;14.65;;;;;;;-0.65;100.00;102187.69;5050849;28;20502;-80
2024/01/07 10:32:20;;;;;;;16.48;14.98;;;;;;;-0.78;100.00;102176.13;5050998;28;20021;-79
2024/01/07 10:34:47;;;;;;;17.02;15.48;;;;;;;-0.67;100.00;102194.59;5060622;28;20023;-80
2024/01/07 10:37:13;;;;;;;16.67;15.18;;;;;;;-0.66;100.00;102194.63;5062700;28;20032;-80
2024/01/07 10:39:38;;;;;;;16.20;14.70;;;;;;;-0.65;100.00;102195.53;5053549;28;20105;-80
2024/01/07 10:42:04;;;;;;;16.42;15.02;;;;;;;-0.73;100.00;102184.06;5054528;28;20033;-80
2024/01/07 10:44:31;;;;;;;15.48;14.07;;;;;;;-0.73;100.00;102192.78;5056495;28;20036;-80
2024/01/07 10:46:58;;;;;;;15.73;14.25;;;;;;;-0.73;100.00;102197.13;5059412;28;20131;-79
2024/01/07 10:49:25;;;;;;;16.90;15.43;;;;;;;-0.73;100.00;102198.00;5058119;28;20079;-79
2024/01/07 10:52:03;;;;;;;15.57;14.27;;;;;;;-0.82;100.00;102196.09;5057316;28;20025;-78
2024/01/07 10:54:29;;;;;;;16.27;14.77;;;;;;;-0.82;100.00;102196.09;5053903;28;20039;-78
2024/01/07 10:56:58;;;;;;;15.52;14.15;;;;;;;-0.87;100.00;102192.53;5057895;28;20604;-78